Элиста

Карта отелей и гостиниц, располагающихся рядом с аэропортом Элиста :

Элиста Республика Калмыкия 46° 22' 28.4988" N, 44° 19' 25.86" E
Код аэродрома ИКАО
URWI
Код аэродрома RU
УРВИ
Координаты
N46.37458° E044.32385°
Превышение над уровнем моря
152
Основная полоса
09R/27L
Курс магнитный
089,8/269,8
Длина основной ВПП
3200
Ширина основной ВПП
45
Покрытие основной ВПП
Твёрдое (асфальтобетон)
Освещение ВПП
Постоянное
Тип: 
Аэродром
Класс аэродрома: 
Международный
Принадлежность: 
ГА
Статус: 
Действующий
Сайт: 
нет
Страна: 
Россия
Регион: 
Республика Калмыкия
Дополнительная информация: 
Оператор: ОАО «Аэропорт Элиста». Нкр.=(600)м. ДПРМ: 311-СА/БЖ. Военный индекс: XRWI / ЬРВИ.
Погода: 

Авиационная погода в Элисте

Регион: 
Погода METAR: 
URWI 171630Z 29006MPS 9999 SCT///CB 11/10 Q1021 TEMPO VRB08G15MPS 2000 TSRA BKN005 BKN020CB
Время наблюдения
2021-04-17T16:30:00Z
Температура C
11.0
Точка росы
10.0
Направление ветра
290
Скорость ветра (узлы)
12
Метео видимость
6.21
Явления погоды
Условия полета
Аэропорт подробнее: 

Найти трансфер

С помощью этой формы Вы можете найти трансфер из аэропорта Элиста в город, аэропорт или вокзал:

Карта места

Javascript is required to view this map.

Погода в аэропортах:

Авиационная погода в Вадсё

Регион: 
Погода METAR: 
ENVD 171320Z 05008KT 4000 DZ BKN004 01/00 Q1032
Время наблюдения
2021-04-17T13:20:00Z
Температура C
1.0
Точка росы
0.0
Направление ветра
50
Скорость ветра (узлы)
8
Метео видимость
2.49
Явления погоды
DZ
Условия полета
LIFR

Авиационная погода в Гомеле

Регион: 
Погода METAR: 
UMGG 171630Z VRB01MPS 8000 -SHRA OVC041CB 09/07 Q1018 R10/D NOSIG
Время наблюдения
2021-04-17T16:30:00Z
Температура C
9.0
Точка росы
7.0
Направление ветра
0
Скорость ветра (узлы)
2
Метео видимость
4.97
Явления погоды
-SHRA
Условия полета
MVFR
Аэропорт подробнее: 

Авиационная погода в Вардё

Регион: 
Погода METAR: 
ENSS 161920Z 26018KT 9999 -RA FEW026 SCT043 03/01 Q1025 RMK WIND 500FT 27031KT
Время наблюдения
2021-04-16T19:20:00Z
Температура C
3.0
Точка росы
1.0
Направление ветра
260
Скорость ветра (узлы)
18
Метео видимость
6.21
Явления погоды
-RA
Условия полета
VFR

Авиационная погода в Брянске

Регион: 
Погода METAR: 
UUBP 171630Z AUTO 23002MPS 6000 -RA ///007/// ///025/// 06/06 Q1016
Время наблюдения
2021-04-17T16:30:00Z
Температура C
6.0
Точка росы
6.0
Направление ветра
230
Скорость ветра (узлы)
4
Метео видимость
3.73
Явления погоды
-RA
Условия полета
Аэропорт подробнее: